createdAt,value
2022-08-10T00:01:52.136Z,45.27
2022-08-10T00:04:24.296Z,45.51
2022-08-10T00:06:55.329Z,45.43
2022-08-10T00:09:24.798Z,45.61
2022-08-10T00:11:51.949Z,46.06
2022-08-10T00:14:19.422Z,46.07
2022-08-10T00:16:47.089Z,45.80
2022-08-10T00:19:17.274Z,46.00
2022-08-10T00:21:47.610Z,46.51
2022-08-10T00:24:15.676Z,46.42
2022-08-10T00:27:52.304Z,46.39
2022-08-10T00:29:30.973Z,46.48
2022-08-10T00:31:59.485Z,46.72
2022-08-10T00:34:32.099Z,46.46
2022-08-10T00:37:00.285Z,46.91
2022-08-10T00:39:29.707Z,47.15
2022-08-10T00:42:01.851Z,47.19
2022-08-10T00:44:53.687Z,47.14
2022-08-10T00:47:36.360Z,47.18
2022-08-10T00:50:09.205Z,47.32
2022-08-10T00:52:40.194Z,47.86
2022-08-10T00:55:07.786Z,47.79
2022-08-10T00:57:35.588Z,48.48
2022-08-10T01:00:04.661Z,48.80
2022-08-10T01:02:33.258Z,49.50
2022-08-10T01:05:09.309Z,49.36
2022-08-10T01:08:03.302Z,49.08
2022-08-10T01:11:01.071Z,49.12
2022-08-10T01:14:03.513Z,49.42
2022-08-10T01:16:36.142Z,49.32
2022-08-10T01:19:41.006Z,49.41
2022-08-10T01:22:32.292Z,49.74
2022-08-10T01:26:11.562Z,49.71
2022-08-10T01:29:04.329Z,49.79
2022-08-10T01:31:41.529Z,50.17
2022-08-10T01:34:18.184Z,49.85
2022-08-10T01:36:52.624Z,50.00
2022-08-10T01:39:28.279Z,50.39
2022-08-10T01:42:00.266Z,50.63
2022-08-10T01:44:45.290Z,50.64
2022-08-10T01:47:36.799Z,50.80
2022-08-10T01:50:13.681Z,50.56
2022-08-10T01:52:47.093Z,50.98
2022-08-10T01:55:15.682Z,51.26
2022-08-10T01:57:47.274Z,51.01
2022-08-10T02:00:14.728Z,50.62
2022-08-10T02:02:45.149Z,50.67
2022-08-10T02:05:15.944Z,50.76
2022-08-10T02:07:44.959Z,50.98
2022-08-10T02:10:17.070Z,51.34
2022-08-10T02:12:47.187Z,51.59
2022-08-10T02:15:19.973Z,51.46
2022-08-10T02:17:58.326Z,51.23
2022-08-10T02:20:38.500Z,50.91
2022-08-10T02:23:16.071Z,51.04
2022-08-10T02:25:45.115Z,51.09
2022-08-10T02:28:29.917Z,51.34
2022-08-10T02:31:11.817Z,51.42
2022-08-10T02:33:45.572Z,52.08
2022-08-10T02:36:31.265Z,51.99
2022-08-10T02:39:03.934Z,51.71
2022-08-10T02:45:14.338Z,51.62
2022-08-10T02:45:21.692Z,51.37
2022-08-10T02:48:02.018Z,52.01
2022-08-10T02:50:34.331Z,51.55
2022-08-10T02:53:51.634Z,51.91
2022-08-10T02:56:46.712Z,52.15
2022-08-10T02:59:39.937Z,52.19
2022-08-10T03:02:14.994Z,52.23
2022-08-10T03:04:55.006Z,51.98
2022-08-10T03:07:44.725Z,52.41
2022-08-10T03:10:23.218Z,52.75
2022-08-10T03:12:55.511Z,52.73
2022-08-10T03:15:24.615Z,52.74
2022-08-10T03:17:57.841Z,52.75
2022-08-10T03:20:40.103Z,52.85
2022-08-10T03:23:18.548Z,53.45
2022-08-10T03:25:52.948Z,53.29
2022-08-10T03:28:24.715Z,53.61
2022-08-10T03:30:53.880Z,54.00
2022-08-10T03:33:22.779Z,54.17
2022-08-10T03:36:39.982Z,54.62
2022-08-10T03:38:40.782Z,54.49
2022-08-10T03:41:16.091Z,54.21
2022-08-10T03:43:49.002Z,54.23
2022-08-10T03:46:21.405Z,54.52
2022-08-10T03:48:53.145Z,54.17
2022-08-10T03:51:22.572Z,54.34
2022-08-10T03:54:05.007Z,54.33
2022-08-10T03:56:40.471Z,54.43
2022-08-10T03:59:12.037Z,54.40
2022-08-10T04:02:44.797Z,54.32
2022-08-10T04:04:29.789Z,54.41
2022-08-10T04:06:59.430Z,54.65
2022-08-10T04:09:43.480Z,54.92
2022-08-10T04:12:18.022Z,54.79
2022-08-10T04:14:51.385Z,54.67
2022-08-10T04:18:01.205Z,54.75
2022-08-10T04:20:25.656Z,54.76
2022-08-10T04:23:03.555Z,54.82
2022-08-10T04:25:32.171Z,55.07
2022-08-10T04:27:59.690Z,54.98
2022-08-10T04:30:29.242Z,55.48
2022-08-10T04:32:59.700Z,55.56
2022-08-10T04:35:29.929Z,55.90
2022-08-10T04:37:59.415Z,55.20
2022-08-10T04:40:29.172Z,55.19
2022-08-10T04:43:12.908Z,55.69
2022-08-10T04:45:50.422Z,55.33
2022-08-10T04:48:41.228Z,55.31
2022-08-10T04:51:16.916Z,55.20
2022-08-10T04:54:04.905Z,54.52
2022-08-10T04:56:39.474Z,54.27
2022-08-10T04:59:11.935Z,54.34
2022-08-10T05:02:28.836Z,53.79
2022-08-10T05:04:36.445Z,54.15
2022-08-10T05:07:09.496Z,54.03
2022-08-10T05:10:04.751Z,54.22
2022-08-10T05:12:27.006Z,54.33
2022-08-10T05:14:54.693Z,54.22
2022-08-10T05:17:23.079Z,54.12
2022-08-10T05:20:01.707Z,53.96
2022-08-10T05:22:39.475Z,53.41
2022-08-10T05:25:14.203Z,53.67
2022-08-10T05:27:43.130Z,53.42
2022-08-10T05:30:18.139Z,53.56
2022-08-10T05:32:57.223Z,53.50
2022-08-10T05:35:57.114Z,53.64
2022-08-10T05:38:21.093Z,53.18
2022-08-10T05:40:50.743Z,53.34
2022-08-10T05:43:21.145Z,53.16
2022-08-10T05:46:17.683Z,52.98
2022-08-10T05:48:59.118Z,52.63
2022-08-10T05:51:30.474Z,52.66
2022-08-10T05:54:04.909Z,52.36
2022-08-10T05:56:56.940Z,52.49
2022-08-10T06:00:30.826Z,52.34
2022-08-10T06:02:38.352Z,51.92
2022-08-10T06:05:26.328Z,51.63
2022-08-10T06:07:59.626Z,51.84
2022-08-10T06:10:32.337Z,51.50
2022-08-10T06:13:29.899Z,51.38
2022-08-10T06:16:04.266Z,51.30
2022-08-10T06:18:34.131Z,51.12
2022-08-10T06:21:02.654Z,51.44
2022-08-10T06:23:31.677Z,51.15
2022-08-10T06:26:09.783Z,51.37
2022-08-10T06:29:07.070Z,50.89
2022-08-10T06:31:49.799Z,51.01
2022-08-10T06:34:30.933Z,50.46
2022-08-10T06:37:01.678Z,50.28
2022-08-10T06:39:33.975Z,50.59
2022-08-10T06:42:19.886Z,50.54
2022-08-10T06:45:04.414Z,50.63
2022-08-10T06:48:08.651Z,50.42
2022-08-10T06:50:55.873Z,50.19
2022-08-10T06:53:52.854Z,50.22
2022-08-10T06:56:36.201Z,49.64
2022-08-10T06:59:22.843Z,49.67
2022-08-10T07:02:21.808Z,49.69
2022-08-10T07:04:59.656Z,49.11
2022-08-10T07:07:33.599Z,49.42
2022-08-10T07:10:01.602Z,49.03
2022-08-10T07:12:32.024Z,48.93
2022-08-10T07:15:01.508Z,49.43
2022-08-10T07:17:37.236Z,49.68
2022-08-10T07:20:09.590Z,49.14
2022-08-10T07:23:27.374Z,48.97
2022-08-10T07:25:29.301Z,48.54
2022-08-10T07:28:01.891Z,48.48
2022-08-10T07:30:39.427Z,48.57
2022-08-10T07:33:08.476Z,48.64
2022-08-10T07:35:41.776Z,48.41
2022-08-10T07:38:22.845Z,47.64
2022-08-10T07:40:53.160Z,47.49
2022-08-10T07:43:25.304Z,47.53
2022-08-10T07:45:56.999Z,47.71
2022-08-10T07:48:31.308Z,47.38
2022-08-10T07:51:02.227Z,47.28
2022-08-10T07:53:39.989Z,46.67
2022-08-10T07:56:21.323Z,46.64
2022-08-10T07:59:08.297Z,46.24
2022-08-10T08:01:42.534Z,46.27
2022-08-10T08:04:13.397Z,46.20
2022-08-10T08:06:43.052Z,46.81
2022-08-10T08:09:11.342Z,45.49
2022-08-10T08:11:42.681Z,46.05
2022-08-10T08:14:12.212Z,45.44
2022-08-10T08:16:45.736Z,45.54
2022-08-10T08:19:27.760Z,45.05
2022-08-10T08:24:05.992Z,45.40
2022-08-10T08:24:46.986Z,44.85
2022-08-10T08:27:17.668Z,45.00
2022-08-10T08:29:47.563Z,44.72
2022-08-10T08:32:27.618Z,44.53
2022-08-10T08:34:59.587Z,44.36
2022-08-10T08:38:31.679Z,44.24
2022-08-10T08:40:36.969Z,42.98
2022-08-10T08:43:31.365Z,43.14
2022-08-10T08:46:28.948Z,43.46
2022-08-10T08:50:09.731Z,42.94
2022-08-10T08:53:23.022Z,43.18
2022-08-10T08:56:07.351Z,42.93
2022-08-10T08:58:52.832Z,42.79
2022-08-10T09:01:49.616Z,41.84
2022-08-10T09:04:47.220Z,41.20
2022-08-10T09:08:00.314Z,41.93
2022-08-10T09:10:45.544Z,41.57
2022-08-10T09:13:45.618Z,42.13
2022-08-10T09:16:47.577Z,41.22
2022-08-10T09:19:58.897Z,41.31
2022-08-10T09:22:36.624Z,40.38
2022-08-10T09:25:23.961Z,39.91
2022-08-10T09:28:05.935Z,39.53
2022-08-10T09:31:18.701Z,39.33
2022-08-10T09:36:25.147Z,39.07
2022-08-10T09:37:14.016Z,38.71
2022-08-10T09:40:58.103Z,38.68
2022-08-10T09:43:25.342Z,38.84
2022-08-10T09:46:20.030Z,38.27
2022-08-10T09:49:02.672Z,37.16
2022-08-10T09:51:55.001Z,37.80
2022-08-10T09:54:53.088Z,37.41
2022-08-10T09:57:44.231Z,36.20
2022-08-10T10:00:25.522Z,36.42
2022-08-10T10:03:55.356Z,36.28
2022-08-10T10:06:44.265Z,35.03
2022-08-10T10:09:27.147Z,34.57
2022-08-10T10:12:49.251Z,35.01
2022-08-10T10:15:24.161Z,34.94
2022-08-10T10:18:34.799Z,34.41
2022-08-10T10:21:55.168Z,34.78
2022-08-10T10:24:35.993Z,34.25
2022-08-10T10:27:39.962Z,33.70
2022-08-10T10:30:12.030Z,33.69
2022-08-10T10:33:10.577Z,33.40
2022-08-10T10:35:55.938Z,31.99
2022-08-10T10:38:32.920Z,32.27
2022-08-10T10:41:15.911Z,31.66
2022-08-10T10:44:02.422Z,31.91
2022-08-10T10:47:16.357Z,32.41
2022-08-10T10:49:58.849Z,33.33
2022-08-10T10:52:50.144Z,33.38
2022-08-10T10:55:30.959Z,33.91
2022-08-10T10:58:58.916Z,33.11
2022-08-10T11:01:47.830Z,32.50
2022-08-10T11:04:35.476Z,32.48
2022-08-10T11:07:23.781Z,31.09
2022-08-10T11:10:14.725Z,31.14
2022-08-10T11:14:26.971Z,31.41
2022-08-10T11:16:25.150Z,28.74
2022-08-10T11:19:15.836Z,30.62
2022-08-10T11:22:01.769Z,30.54
2022-08-10T11:24:52.764Z,31.17
2022-08-10T11:27:31.970Z,30.94
2022-08-10T11:30:46.535Z,31.18
2022-08-10T11:33:31.097Z,31.51
2022-08-10T11:36:05.942Z,29.95
2022-08-10T11:39:30.718Z,28.94
2022-08-10T11:42:18.532Z,29.84
2022-08-10T11:45:01.129Z,28.75
2022-08-10T11:47:41.764Z,28.58
2022-08-10T11:50:16.901Z,28.39
2022-08-10T11:53:21.239Z,29.10
2022-08-10T11:55:57.696Z,28.29
2022-08-10T11:58:50.593Z,28.68
2022-08-10T12:01:30.775Z,29.22
2022-08-10T12:04:07.539Z,29.95
2022-08-10T12:06:55.184Z,29.68
2022-08-10T12:10:11.563Z,30.22
2022-08-10T12:12:14.083Z,30.17
2022-08-10T12:15:16.102Z,29.99
2022-08-10T12:17:52.425Z,29.85
2022-08-10T12:20:32.116Z,30.20
2022-08-10T12:23:13.901Z,30.49
2022-08-10T12:26:12.824Z,30.01
2022-08-10T12:28:55.181Z,29.91
2022-08-10T12:31:42.613Z,30.01
2022-08-10T12:34:41.774Z,30.48
2022-08-10T12:37:26.951Z,30.44
2022-08-10T12:40:34.569Z,30.10
2022-08-10T12:44:06.250Z,30.07
2022-08-10T12:46:56.547Z,30.50
2022-08-10T12:50:29.849Z,29.57
2022-08-10T12:53:10.360Z,30.69
2022-08-10T12:55:42.641Z,30.08
2022-08-10T12:58:57.477Z,30.67
2022-08-10T13:01:15.995Z,30.05
2022-08-10T13:04:23.726Z,30.50
2022-08-10T13:06:47.125Z,30.82
2022-08-10T13:09:22.503Z,30.97
2022-08-10T13:12:36.739Z,30.59
2022-08-10T13:14:59.760Z,30.72
2022-08-10T13:17:40.159Z,31.03
2022-08-10T13:20:29.813Z,31.05
2022-08-10T13:23:01.484Z,30.75
2022-08-10T13:25:37.874Z,30.84
2022-08-10T13:28:35.707Z,31.52
2022-08-10T13:31:07.490Z,30.71
2022-08-10T13:34:40.998Z,30.66
2022-08-10T13:36:41.573Z,30.75
2022-08-10T13:39:11.837Z,30.88
2022-08-10T13:41:44.314Z,31.36
2022-08-10T13:44:18.042Z,31.31
2022-08-10T13:46:52.527Z,31.44
2022-08-10T13:49:22.508Z,30.56
2022-08-10T13:51:57.972Z,30.86
2022-08-10T13:54:36.797Z,30.71
2022-08-10T13:57:06.934Z,31.59
2022-08-10T14:00:35.307Z,30.75
2022-08-10T14:02:37.535Z,30.81
2022-08-10T14:05:11.736Z,30.04
2022-08-10T14:08:01.070Z,30.32
2022-08-10T14:11:08.997Z,29.87
2022-08-10T14:13:36.767Z,30.55
2022-08-10T14:16:09.773Z,29.88
2022-08-10T14:18:39.859Z,29.92
2022-08-10T14:21:07.796Z,29.83
2022-08-10T14:23:41.761Z,29.34
2022-08-10T14:26:11.843Z,30.14
2022-08-10T14:28:50.310Z,30.32
2022-08-10T14:31:22.827Z,30.88
2022-08-10T14:33:57.150Z,30.08
2022-08-10T14:36:54.775Z,30.20
2022-08-10T14:40:05.942Z,30.42
2022-08-10T14:42:45.903Z,30.42
2022-08-10T14:45:31.780Z,30.41
2022-08-10T14:48:17.143Z,30.53
2022-08-10T14:50:55.234Z,30.24
2022-08-10T14:53:27.362Z,29.96
2022-08-10T14:56:09.146Z,29.86
2022-08-10T14:59:06.033Z,30.02
2022-08-10T15:02:00.372Z,28.76
2022-08-10T15:04:25.978Z,29.27
2022-08-10T15:07:02.880Z,29.69
2022-08-10T15:10:00.469Z,29.14
2022-08-10T15:12:38.407Z,29.46
2022-08-10T15:15:16.135Z,29.96
2022-08-10T15:17:52.946Z,28.86
2022-08-10T15:20:26.044Z,29.63
2022-08-10T15:22:59.489Z,29.67
2022-08-10T15:25:29.186Z,29.39
2022-08-10T15:28:08.016Z,29.09
2022-08-10T15:30:45.922Z,29.27
2022-08-10T15:34:02.051Z,29.17
2022-08-10T15:36:46.329Z,29.35
2022-08-10T15:40:25.173Z,28.62
2022-08-10T15:42:23.747Z,28.95
2022-08-10T15:44:55.056Z,29.41
2022-08-10T15:47:46.300Z,28.13
2022-08-10T15:50:27.898Z,28.32
2022-08-10T15:53:04.181Z,28.74
2022-08-10T15:55:59.459Z,27.96
2022-08-10T15:58:50.958Z,27.33
2022-08-10T16:02:14.811Z,27.17
2022-08-10T16:04:31.849Z,26.17
2022-08-10T16:07:08.922Z,24.95
2022-08-10T16:10:23.484Z,24.71
2022-08-10T16:12:59.957Z,24.34
2022-08-10T16:15:30.358Z,23.79
2022-08-10T16:18:04.538Z,23.47
2022-08-10T16:20:52.993Z,23.52
2022-08-10T16:23:35.201Z,23.70
2022-08-10T16:26:15.650Z,23.22
2022-08-10T16:28:57.796Z,23.60
2022-08-10T16:31:29.223Z,23.96
2022-08-10T16:34:01.313Z,24.25
2022-08-10T16:36:44.595Z,25.06
2022-08-10T16:39:58.864Z,25.43
2022-08-10T16:42:25.831Z,25.53
2022-08-10T16:45:03.828Z,25.93
2022-08-10T16:47:36.878Z,25.80
2022-08-10T16:50:09.625Z,25.41
2022-08-10T16:52:38.721Z,25.95
2022-08-10T16:55:49.097Z,26.49
2022-08-10T16:58:29.267Z,26.35
2022-08-10T17:01:09.111Z,26.22
2022-08-10T17:04:07.087Z,26.18
2022-08-10T17:06:43.077Z,26.38
2022-08-10T17:09:19.364Z,26.11
2022-08-10T17:11:52.960Z,26.42
2022-08-10T17:14:26.639Z,26.43
2022-08-10T17:17:04.676Z,26.71
2022-08-10T17:19:42.537Z,27.15
2022-08-10T17:22:26.408Z,27.03
2022-08-10T17:25:12.935Z,26.99
2022-08-10T17:28:05.678Z,27.39
2022-08-10T17:30:36.971Z,27.59
2022-08-10T17:33:27.625Z,27.79
2022-08-10T17:36:05.067Z,27.71
2022-08-10T17:38:38.087Z,28.15
2022-08-10T17:41:13.239Z,28.49
2022-08-10T17:43:59.347Z,28.37
2022-08-10T17:46:46.090Z,28.16
2022-08-10T17:49:16.606Z,28.51
2022-08-10T17:51:54.282Z,28.55
2022-08-10T17:54:28.152Z,28.95
2022-08-10T17:57:01.887Z,28.79
2022-08-10T17:59:34.868Z,29.18
2022-08-10T18:02:19.843Z,29.00
2022-08-10T18:05:03.040Z,29.00
2022-08-10T18:07:35.452Z,28.88
2022-08-10T18:10:05.889Z,29.49
2022-08-10T18:12:48.900Z,29.68
2022-08-10T18:15:24.624Z,29.45
2022-08-10T18:18:00.783Z,29.15
2022-08-10T18:20:35.745Z,29.88
2022-08-10T18:23:05.267Z,29.81
2022-08-10T18:25:43.029Z,30.03
2022-08-10T18:28:20.431Z,29.94
2022-08-10T18:30:56.061Z,29.92
2022-08-10T18:33:32.017Z,30.52
2022-08-10T18:36:07.604Z,30.02
2022-08-10T18:38:42.141Z,30.25
2022-08-10T18:41:16.947Z,30.13
2022-08-10T18:44:11.439Z,30.98
2022-08-10T18:46:51.200Z,30.93
2022-08-10T18:49:42.205Z,31.02
2022-08-10T18:52:15.323Z,31.13
2022-08-10T18:54:50.027Z,31.06
2022-08-10T18:57:24.661Z,31.23
2022-08-10T19:00:13.775Z,31.21
2022-08-10T19:03:24.672Z,31.63
2022-08-10T19:06:59.234Z,31.47
2022-08-10T19:09:51.847Z,31.47
2022-08-10T19:12:48.997Z,31.62
2022-08-10T19:15:44.633Z,31.91
2022-08-10T19:18:47.868Z,31.69
2022-08-10T19:21:33.006Z,32.49
2022-08-10T19:24:26.247Z,32.90
2022-08-10T19:27:14.304Z,32.43
2022-08-10T19:30:11.712Z,32.60
2022-08-10T19:33:11.889Z,32.33
2022-08-10T19:36:10.437Z,32.91
2022-08-10T19:39:22.299Z,33.15
2022-08-10T19:42:19.900Z,32.74
2022-08-10T19:46:00.752Z,32.81
2022-08-10T19:48:49.495Z,32.85
2022-08-10T19:51:40.140Z,33.17
2022-08-10T19:54:18.267Z,33.39
2022-08-10T19:57:22.376Z,33.61
2022-08-10T20:00:19.067Z,33.71
2022-08-10T20:03:15.958Z,33.52
2022-08-10T20:06:18.892Z,33.72
2022-08-10T20:09:31.734Z,34.07
2022-08-10T20:12:07.976Z,33.93
2022-08-10T20:14:53.642Z,34.13
2022-08-10T20:17:51.361Z,33.97
2022-08-10T20:20:35.074Z,34.04
2022-08-10T20:23:33.421Z,34.49
2022-08-10T20:26:50.524Z,34.17
2022-08-10T20:29:58.824Z,34.44
2022-08-10T20:32:28.412Z,34.64
2022-08-10T20:35:42.081Z,34.68
2022-08-10T20:38:19.118Z,34.97
2022-08-10T20:41:06.583Z,35.17
2022-08-10T20:44:03.957Z,35.20
2022-08-10T20:46:59.688Z,35.39
2022-08-10T20:49:39.631Z,35.52
2022-08-10T20:52:09.012Z,35.31
2022-08-10T20:55:03.280Z,35.47
2022-08-10T20:58:04.710Z,35.53
2022-08-10T21:00:52.813Z,35.65
2022-08-10T21:03:44.033Z,35.73
2022-08-10T21:06:52.147Z,35.80
2022-08-10T21:09:39.586Z,36.24
2022-08-10T21:12:49.393Z,36.11
2022-08-10T21:15:52.844Z,36.10
2022-08-10T21:18:51.924Z,36.72
2022-08-10T21:21:57.041Z,36.37
2022-08-10T21:24:41.639Z,36.75
2022-08-10T21:27:24.013Z,36.43
2022-08-10T21:30:13.739Z,36.53
2022-08-10T21:32:59.728Z,36.71
2022-08-10T21:35:49.373Z,37.15
2022-08-10T21:38:44.851Z,36.83
2022-08-10T21:41:56.970Z,37.21
2022-08-10T21:45:16.803Z,37.38
2022-08-10T21:48:30.054Z,36.99
2022-08-10T21:52:00.191Z,37.46
2022-08-10T21:54:53.542Z,37.36
2022-08-10T21:58:28.582Z,37.28
2022-08-10T22:01:39.002Z,37.80
2022-08-10T22:04:26.765Z,37.44
2022-08-10T22:07:20.475Z,37.93
2022-08-10T22:10:13.800Z,37.60
2022-08-10T22:13:08.549Z,38.13
2022-08-10T22:16:11.242Z,38.40
2022-08-10T22:19:14.630Z,38.54
2022-08-10T22:22:19.668Z,38.87
2022-08-10T22:25:52.787Z,38.85
2022-08-10T22:28:38.905Z,39.02
2022-08-10T22:31:56.224Z,39.51
2022-08-10T22:35:22.560Z,39.47
2022-08-10T22:38:39.356Z,39.27
2022-08-10T22:41:48.935Z,39.68
2022-08-10T22:44:40.743Z,40.26
2022-08-10T22:47:33.763Z,40.06
2022-08-10T22:50:08.100Z,40.00
2022-08-10T22:53:03.254Z,40.17
2022-08-10T22:55:59.642Z,40.42
2022-08-10T22:58:39.024Z,40.35
2022-08-10T23:01:09.096Z,40.49
2022-08-10T23:03:51.917Z,40.28
2022-08-10T23:06:28.320Z,40.76
2022-08-10T23:09:03.748Z,40.69
2022-08-10T23:11:38.577Z,40.33
2022-08-10T23:14:13.703Z,40.50
2022-08-10T23:17:10.880Z,40.99
2022-08-10T23:19:48.552Z,40.73
2022-08-10T23:22:29.137Z,41.16
2022-08-10T23:25:11.462Z,40.78
2022-08-10T23:27:43.241Z,41.18
2022-08-10T23:30:17.058Z,41.28
2022-08-10T23:32:51.312Z,41.46
2022-08-10T23:36:30.598Z,41.49
2022-08-10T23:38:14.123Z,41.66
2022-08-10T23:40:48.207Z,41.74
2022-08-10T23:43:21.716Z,41.47
2022-08-10T23:45:57.041Z,42.08
2022-08-10T23:48:34.507Z,41.90
2022-08-10T23:51:16.050Z,41.91
2022-08-10T23:53:48.175Z,42.13
2022-08-10T23:56:22.110Z,42.12
2022-08-10T23:58:54.540Z,42.20
